createdAt,value
2023-02-16T00:01:18.888Z,93.45
2023-02-16T00:03:22.566Z,93.98
2023-02-16T00:05:32.892Z,93.97
2023-02-16T00:07:34.332Z,93.64
2023-02-16T00:09:35.806Z,93.16
2023-02-16T00:11:56.168Z,93.08
2023-02-16T00:13:57.651Z,93.11
2023-02-16T00:15:59.171Z,92.77
2023-02-16T00:18:02.869Z,92.74
2023-02-16T00:20:14.081Z,92.66
2023-02-16T00:22:15.521Z,92.93
2023-02-16T00:24:17.114Z,92.41
2023-02-16T00:26:22.796Z,92.36
2023-02-16T00:28:24.245Z,92.21
2023-02-16T00:30:25.836Z,92.57
2023-02-16T00:32:27.419Z,92.33
2023-02-16T00:34:32.943Z,92.71
2023-02-16T00:36:34.418Z,92.21
2023-02-16T00:38:36.193Z,92.48
2023-02-16T00:40:37.945Z,92.24
2023-02-16T00:42:39.662Z,91.96
2023-02-16T00:45:01.830Z,92.58
2023-02-16T00:47:15.296Z,92.16
2023-02-16T00:49:18.937Z,92.29
2023-02-16T00:51:25.789Z,92.45
2023-02-16T00:53:27.808Z,92.41
2023-02-16T00:55:35.289Z,92.45
2023-02-16T00:57:51.152Z,92.68
2023-02-16T01:00:00.566Z,92.44
2023-02-16T01:02:02.110Z,93.08
2023-02-16T01:04:07.270Z,93.19
2023-02-16T01:06:29.146Z,93.01
2023-02-16T01:08:49.022Z,92.59
2023-02-16T01:11:10.469Z,92.61
2023-02-16T01:13:12.140Z,93.08
2023-02-16T01:15:15.182Z,93.33
2023-02-16T01:17:16.672Z,93.17
2023-02-16T01:19:18.208Z,93.30
2023-02-16T01:21:21.821Z,93.19
2023-02-16T01:23:23.309Z,93.42
2023-02-16T01:25:24.800Z,92.85
2023-02-16T01:27:26.261Z,93.36
2023-02-16T01:29:27.732Z,93.05
2023-02-16T01:31:29.315Z,92.98
2023-02-16T01:33:30.835Z,92.82
2023-02-16T01:35:34.227Z,92.97
2023-02-16T01:37:35.762Z,92.84
2023-02-16T01:39:37.231Z,92.94
2023-02-16T01:41:51.450Z,93.08
2023-02-16T01:43:59.662Z,93.16
2023-02-16T01:46:11.681Z,93.67
2023-02-16T01:48:21.955Z,93.63
2023-02-16T01:50:34.276Z,93.65
2023-02-16T01:52:43.200Z,93.87
2023-02-16T01:54:53.408Z,94.17
2023-02-16T01:57:04.648Z,94.19
2023-02-16T01:59:22.768Z,93.88
2023-02-16T02:01:37.534Z,93.93
2023-02-16T02:03:57.714Z,93.93
2023-02-16T02:05:59.293Z,93.86
2023-02-16T02:08:15.648Z,93.76
2023-02-16T02:10:24.024Z,93.94
2023-02-16T02:12:48.093Z,93.72
2023-02-16T02:14:49.601Z,93.30
2023-02-16T02:16:57.768Z,93.23
2023-02-16T02:18:59.241Z,93.40
2023-02-16T02:21:28.363Z,93.52
2023-02-16T02:24:07.379Z,93.71
2023-02-16T02:26:33.745Z,93.59
2023-02-16T02:28:55.090Z,93.36
2023-02-16T02:31:15.420Z,93.28
2023-02-16T02:33:22.744Z,93.33
2023-02-16T02:35:27.305Z,92.68
2023-02-16T02:37:59.819Z,92.97
2023-02-16T02:40:34.858Z,93.04
2023-02-16T02:42:49.461Z,93.24
2023-02-16T02:45:35.420Z,93.08
2023-02-16T02:47:39.180Z,93.04
2023-02-16T02:49:42.088Z,92.97
2023-02-16T02:51:43.613Z,93.28
2023-02-16T02:54:30.909Z,93.30
2023-02-16T02:56:51.255Z,92.99
2023-02-16T02:59:16.680Z,92.63
2023-02-16T03:01:19.157Z,92.70
2023-02-16T03:03:32.825Z,92.72
2023-02-16T03:05:36.985Z,93.03
2023-02-16T03:07:48.057Z,93.22
2023-02-16T03:10:09.510Z,93.42
2023-02-16T03:12:31.551Z,93.23
2023-02-16T03:14:46.620Z,93.18
2023-02-16T03:17:11.628Z,93.00
2023-02-16T03:19:35.547Z,93.81
2023-02-16T03:21:56.358Z,94.57
2023-02-16T03:24:18.704Z,94.99
2023-02-16T03:26:39.289Z,94.65
2023-02-16T03:29:02.160Z,94.91
2023-02-16T03:31:06.396Z,94.56
2023-02-16T03:33:08.170Z,94.71
2023-02-16T03:35:12.693Z,94.79
2023-02-16T03:37:14.699Z,94.70
2023-02-16T03:39:17.612Z,94.62
2023-02-16T03:41:19.070Z,94.80
2023-02-16T03:43:25.715Z,94.67
2023-02-16T03:45:28.638Z,94.61
2023-02-16T03:47:30.235Z,94.52
2023-02-16T03:49:31.722Z,94.70
2023-02-16T03:51:33.252Z,95.01
2023-02-16T03:53:34.751Z,94.77
2023-02-16T03:55:37.541Z,94.88
2023-02-16T03:57:39.627Z,95.22
2023-02-16T03:59:41.114Z,95.35
2023-02-16T04:01:42.587Z,95.18
2023-02-16T04:03:44.133Z,95.41
2023-02-16T04:05:45.796Z,95.09
2023-02-16T04:07:47.305Z,95.26
2023-02-16T04:09:48.794Z,95.30
2023-02-16T04:12:08.945Z,95.04
2023-02-16T04:14:10.452Z,95.26
2023-02-16T04:16:11.953Z,95.22
2023-02-16T04:18:13.500Z,95.66
2023-02-16T04:20:22.214Z,95.65
2023-02-16T04:22:23.678Z,95.79
2023-02-16T04:24:25.219Z,95.92
2023-02-16T04:26:26.674Z,95.63
2023-02-16T04:28:28.132Z,95.61
2023-02-16T04:30:31.385Z,95.46
2023-02-16T04:32:32.992Z,95.60
2023-02-16T04:34:34.479Z,95.27
2023-02-16T04:36:35.980Z,95.35
2023-02-16T04:38:37.464Z,95.24
2023-02-16T04:40:38.922Z,95.20
2023-02-16T04:42:44.910Z,95.33
2023-02-16T04:44:46.427Z,95.36
2023-02-16T04:46:47.878Z,95.30
2023-02-16T04:48:49.416Z,95.40
2023-02-16T04:50:51.097Z,95.32
2023-02-16T04:52:52.567Z,95.25
2023-02-16T04:54:54.113Z,95.35
2023-02-16T04:56:55.609Z,95.14
2023-02-16T04:58:57.062Z,95.20
2023-02-16T05:00:58.543Z,95.31
2023-02-16T05:03:00.090Z,94.99
2023-02-16T05:05:01.549Z,95.17
2023-02-16T05:07:03.085Z,94.91
2023-02-16T05:09:05.889Z,94.83
2023-02-16T05:11:26.059Z,95.00
2023-02-16T05:13:45.761Z,95.05
2023-02-16T05:15:47.388Z,95.41
2023-02-16T05:17:48.987Z,95.30
2023-02-16T05:19:52.799Z,95.28
2023-02-16T05:21:54.286Z,95.07
2023-02-16T05:23:55.742Z,95.17
2023-02-16T05:25:57.204Z,95.69
2023-02-16T05:27:58.741Z,95.70
2023-02-16T05:30:00.270Z,95.82
2023-02-16T05:32:04.578Z,95.69
2023-02-16T05:34:06.419Z,95.94
2023-02-16T05:36:08.180Z,96.62
2023-02-16T05:38:09.665Z,96.62
2023-02-16T05:40:11.746Z,97.06
2023-02-16T05:42:13.452Z,97.41
2023-02-16T05:44:14.915Z,98.35
2023-02-16T05:46:16.452Z,98.52
2023-02-16T05:48:18.276Z,98.78
2023-02-16T05:50:19.801Z,98.66
2023-02-16T05:52:21.380Z,98.72
2023-02-16T05:54:22.959Z,98.62
2023-02-16T05:56:25.400Z,98.19
2023-02-16T05:58:26.922Z,98.26
2023-02-16T06:00:28.630Z,98.81
2023-02-16T06:02:30.202Z,98.72
2023-02-16T06:04:32.579Z,98.06
2023-02-16T06:06:34.750Z,98.08
2023-02-16T06:08:37.307Z,98.22
2023-02-16T06:10:38.779Z,98.35
2023-02-16T06:12:40.235Z,98.57
2023-02-16T06:14:41.700Z,98.71
2023-02-16T06:16:45.548Z,98.37
2023-02-16T06:18:47.014Z,98.67
2023-02-16T06:20:48.994Z,98.12
2023-02-16T06:22:50.463Z,98.50
2023-02-16T06:24:52.107Z,98.49
2023-02-16T06:26:53.657Z,98.26
2023-02-16T06:28:55.630Z,98.05
2023-02-16T06:30:57.225Z,97.80
2023-02-16T06:32:58.953Z,98.11
2023-02-16T06:35:00.423Z,97.37
2023-02-16T06:37:01.902Z,97.27
2023-02-16T06:39:03.821Z,97.14
2023-02-16T06:41:06.157Z,97.12
2023-02-16T06:43:08.116Z,97.72
2023-02-16T06:45:10.171Z,96.99
2023-02-16T06:47:11.736Z,96.54
2023-02-16T06:49:18.556Z,96.36
2023-02-16T06:51:20.785Z,96.32
2023-02-16T06:53:22.327Z,96.38
2023-02-16T06:55:23.818Z,96.55
2023-02-16T06:57:25.330Z,96.38
2023-02-16T06:59:26.835Z,96.12
2023-02-16T07:01:28.795Z,95.91
2023-02-16T07:03:30.475Z,96.09
2023-02-16T07:05:32.195Z,95.44
2023-02-16T07:07:33.671Z,94.91
2023-02-16T07:09:38.157Z,94.89
2023-02-16T07:11:39.949Z,95.02
2023-02-16T07:13:41.507Z,93.86
2023-02-16T07:15:42.978Z,94.24
2023-02-16T07:17:44.477Z,93.11
2023-02-16T07:19:46.019Z,93.78
2023-02-16T07:21:47.537Z,93.11
2023-02-16T07:23:49.346Z,92.74
2023-02-16T07:25:50.841Z,92.10
2023-02-16T07:27:54.601Z,91.93
2023-02-16T07:29:56.106Z,91.98
2023-02-16T07:31:57.826Z,91.46
2023-02-16T07:33:59.414Z,91.18
2023-02-16T07:36:00.972Z,91.60
2023-02-16T07:38:02.757Z,91.14
2023-02-16T07:40:04.955Z,91.02
2023-02-16T07:42:06.462Z,91.38
2023-02-16T07:44:08.363Z,90.94
2023-02-16T07:46:10.761Z,91.97
2023-02-16T07:48:13.901Z,92.05
2023-02-16T07:50:16.498Z,92.39
2023-02-16T07:52:18.004Z,91.68
2023-02-16T07:54:19.455Z,92.40
2023-02-16T07:56:23.245Z,91.82
2023-02-16T07:58:27.602Z,91.61
2023-02-16T08:00:29.161Z,91.57
2023-02-16T08:02:30.739Z,92.01
2023-02-16T08:04:32.220Z,91.44
2023-02-16T08:06:37.055Z,90.89
2023-02-16T08:08:39.307Z,91.27
2023-02-16T08:10:40.790Z,91.23
2023-02-16T08:12:42.676Z,90.83
2023-02-16T08:14:46.611Z,90.74
2023-02-16T08:16:50.365Z,90.37
2023-02-16T08:18:56.309Z,90.64
2023-02-16T08:21:04.133Z,90.37
2023-02-16T08:23:07.800Z,89.60
2023-02-16T08:25:09.342Z,89.38
2023-02-16T08:27:10.884Z,89.01
2023-02-16T08:29:14.968Z,89.21
2023-02-16T08:31:19.131Z,88.92
2023-02-16T08:33:20.650Z,88.68
2023-02-16T08:35:22.618Z,89.08
2023-02-16T08:37:25.224Z,88.68
2023-02-16T08:39:30.718Z,88.48
2023-02-16T08:41:35.892Z,87.88
2023-02-16T08:43:37.392Z,87.95
2023-02-16T08:45:45.255Z,87.31
2023-02-16T08:47:46.851Z,87.55
2023-02-16T08:49:48.350Z,87.06
2023-02-16T08:51:52.961Z,86.83
2023-02-16T08:53:55.932Z,87.11
2023-02-16T08:55:58.666Z,86.48
2023-02-16T08:58:00.965Z,86.42
2023-02-16T09:00:21.049Z,86.18
2023-02-16T09:02:22.818Z,86.21
2023-02-16T09:04:25.606Z,86.00
2023-02-16T09:06:27.492Z,85.21
2023-02-16T09:08:29.314Z,85.43
2023-02-16T09:10:30.776Z,85.20
2023-02-16T09:12:33.698Z,85.14
2023-02-16T09:14:35.141Z,84.56
2023-02-16T09:16:39.406Z,84.80
2023-02-16T09:18:42.002Z,84.42
2023-02-16T09:20:46.993Z,84.51
2023-02-16T09:22:48.689Z,84.95
2023-02-16T09:24:50.159Z,84.99
2023-02-16T09:26:52.041Z,84.51
2023-02-16T09:28:53.900Z,84.96
2023-02-16T09:30:55.449Z,85.17
2023-02-16T09:32:59.247Z,84.75
2023-02-16T09:35:00.721Z,84.90
2023-02-16T09:37:02.224Z,83.51
2023-02-16T09:39:03.831Z,83.43
2023-02-16T09:41:20.546Z,83.50
2023-02-16T09:43:46.163Z,83.07
2023-02-16T09:45:51.706Z,83.19
2023-02-16T09:47:55.161Z,83.39
2023-02-16T09:50:03.858Z,83.43
2023-02-16T09:52:08.377Z,83.45
2023-02-16T09:54:31.819Z,83.11
2023-02-16T09:56:46.340Z,83.70
2023-02-16T09:59:24.556Z,83.76
2023-02-16T10:01:42.245Z,83.13
2023-02-16T10:03:49.279Z,83.25
2023-02-16T10:06:05.620Z,82.60
2023-02-16T10:08:25.107Z,81.99
2023-02-16T10:10:56.207Z,81.97
2023-02-16T10:13:16.968Z,81.92
2023-02-16T10:15:23.361Z,81.10
2023-02-16T10:17:44.791Z,81.03
2023-02-16T10:20:21.913Z,80.70
2023-02-16T10:22:38.535Z,80.71
2023-02-16T10:24:49.861Z,81.08
2023-02-16T10:26:59.663Z,81.26
2023-02-16T10:29:07.634Z,82.28
2023-02-16T10:31:36.339Z,82.79
2023-02-16T10:33:46.086Z,83.05
2023-02-16T10:35:49.950Z,82.33
2023-02-16T10:38:01.660Z,81.48
2023-02-16T10:40:23.155Z,82.06
2023-02-16T10:42:28.252Z,81.99
2023-02-16T10:44:40.247Z,82.25
2023-02-16T10:46:47.881Z,82.08
2023-02-16T10:48:54.322Z,81.56
2023-02-16T10:51:01.309Z,82.21
2023-02-16T10:53:09.643Z,81.73
2023-02-16T10:55:13.135Z,80.91
2023-02-16T10:57:27.042Z,81.11
2023-02-16T10:59:38.704Z,81.14
2023-02-16T11:01:45.068Z,81.38
2023-02-16T11:03:50.316Z,80.91
2023-02-16T11:05:53.411Z,80.83
2023-02-16T11:07:57.126Z,80.85
2023-02-16T11:10:02.728Z,80.33
2023-02-16T11:12:31.031Z,81.20
2023-02-16T11:14:32.860Z,80.54
2023-02-16T11:16:34.641Z,81.25
2023-02-16T11:18:41.629Z,79.98
2023-02-16T11:20:46.006Z,80.51
2023-02-16T11:22:47.503Z,80.85
2023-02-16T11:24:48.983Z,80.63
2023-02-16T11:27:02.166Z,80.91
2023-02-16T11:29:18.871Z,79.74
2023-02-16T11:31:39.729Z,80.74
2023-02-16T11:33:42.994Z,81.31
2023-02-16T11:35:45.724Z,80.50
2023-02-16T11:37:47.506Z,79.52
2023-02-16T11:39:56.664Z,79.72
2023-02-16T11:42:02.768Z,79.01
2023-02-16T11:44:04.745Z,78.64
2023-02-16T11:46:17.608Z,79.00
2023-02-16T11:48:28.552Z,78.98
2023-02-16T11:50:35.398Z,78.54
2023-02-16T11:52:37.067Z,78.44
2023-02-16T11:54:48.796Z,79.18
2023-02-16T11:57:05.239Z,80.08
2023-02-16T11:59:21.493Z,80.14
2023-02-16T12:01:58.522Z,80.22
2023-02-16T12:04:27.014Z,80.37
2023-02-16T12:07:07.672Z,80.96
2023-02-16T12:09:43.230Z,81.14
2023-02-16T12:12:40.467Z,81.54
2023-02-16T12:15:16.949Z,83.39
2023-02-16T12:17:21.673Z,83.68
2023-02-16T12:19:31.970Z,84.46
2023-02-16T12:21:53.639Z,84.79
2023-02-16T12:24:22.035Z,84.54
2023-02-16T12:26:38.323Z,85.25
2023-02-16T12:28:57.952Z,85.58
2023-02-16T12:31:11.612Z,86.71
2023-02-16T12:33:15.849Z,87.32
2023-02-16T12:35:55.109Z,86.62
2023-02-16T12:38:29.600Z,87.85
2023-02-16T12:40:58.305Z,87.53
2023-02-16T12:43:32.467Z,87.93
2023-02-16T12:45:37.450Z,88.13
2023-02-16T12:47:49.781Z,87.76
2023-02-16T12:50:14.009Z,87.92
2023-02-16T12:52:34.157Z,87.94
2023-02-16T12:54:43.233Z,88.02
2023-02-16T12:57:13.608Z,88.60
2023-02-16T12:59:29.845Z,88.96
2023-02-16T13:01:35.699Z,89.83
2023-02-16T13:03:50.140Z,90.09
2023-02-16T13:06:03.129Z,90.87
2023-02-16T13:08:42.878Z,90.87
2023-02-16T13:10:52.825Z,92.11
2023-02-16T13:13:00.757Z,92.12
2023-02-16T13:15:10.519Z,91.94
2023-02-16T13:17:17.875Z,91.98
2023-02-16T13:19:19.627Z,91.80
2023-02-16T13:21:51.184Z,90.73
2023-02-16T13:24:17.650Z,91.09
2023-02-16T13:26:28.306Z,92.38
2023-02-16T13:28:48.399Z,92.30
2023-02-16T13:30:50.038Z,93.20
2023-02-16T13:33:37.019Z,92.60
2023-02-16T13:36:22.978Z,92.51
2023-02-16T13:38:36.156Z,92.77
2023-02-16T13:40:56.304Z,92.61
2023-02-16T13:43:13.194Z,93.30
2023-02-16T13:45:24.421Z,93.18
2023-02-16T13:47:38.204Z,93.79
2023-02-16T13:49:42.936Z,93.47
2023-02-16T13:51:46.284Z,94.11
2023-02-16T13:54:02.251Z,94.33
2023-02-16T13:56:14.629Z,94.16
2023-02-16T13:58:17.032Z,94.85
2023-02-16T14:00:42.305Z,94.63
2023-02-16T14:02:57.471Z,95.62
2023-02-16T14:05:01.945Z,95.53
2023-02-16T14:07:03.417Z,95.63
2023-02-16T14:09:14.002Z,95.46
2023-02-16T14:11:15.511Z,96.14
2023-02-16T14:13:17.372Z,95.76
2023-02-16T14:15:20.888Z,96.32
2023-02-16T14:17:26.107Z,96.60
2023-02-16T14:19:27.604Z,96.82
2023-02-16T14:21:35.378Z,96.37
2023-02-16T14:23:36.933Z,96.41
2023-02-16T14:25:40.229Z,96.48
2023-02-16T14:27:47.341Z,96.54
2023-02-16T14:29:59.183Z,96.69
2023-02-16T14:32:24.223Z,96.85
2023-02-16T14:34:31.333Z,97.24
2023-02-16T14:36:33.383Z,98.04
2023-02-16T14:38:38.502Z,98.49
2023-02-16T14:40:55.473Z,99.13
2023-02-16T14:43:01.545Z,99.49
2023-02-16T14:45:31.888Z,99.99
2023-02-16T14:48:05.242Z,100.00
2023-02-16T14:50:37.276Z,100.00
2023-02-16T14:53:00.349Z,100.00
2023-02-16T14:55:12.084Z,100.00
2023-02-16T14:57:21.517Z,100.00
2023-02-16T14:59:54.650Z,100.00
2023-02-16T15:01:56.384Z,100.00
2023-02-16T15:03:59.640Z,100.00
2023-02-16T15:06:05.936Z,100.00
2023-02-16T15:08:37.105Z,100.00
2023-02-16T15:10:40.243Z,100.00
2023-02-16T15:12:43.979Z,100.00
2023-02-16T15:14:49.631Z,100.00
2023-02-16T15:16:53.307Z,100.00
2023-02-16T15:18:56.846Z,100.00
2023-02-16T15:20:59.128Z,100.00
2023-02-16T15:23:07.927Z,100.00
2023-02-16T15:25:20.939Z,100.00
2023-02-16T15:27:23.601Z,100.00
2023-02-16T15:29:27.439Z,100.00
2023-02-16T15:31:33.119Z,100.00
2023-02-16T15:33:39.573Z,100.00
2023-02-16T15:35:43.430Z,100.00
2023-02-16T15:37:44.870Z,100.00
2023-02-16T15:40:03.027Z,100.00
2023-02-16T15:42:22.043Z,100.00
2023-02-16T15:44:36.752Z,100.00
2023-02-16T15:46:42.100Z,100.00
2023-02-16T15:48:43.634Z,100.00
2023-02-16T15:50:45.905Z,100.00
2023-02-16T15:52:47.926Z,100.00
2023-02-16T15:54:50.239Z,100.00
2023-02-16T15:56:54.075Z,100.00
2023-02-16T15:58:58.000Z,100.00
2023-02-16T16:01:00.490Z,100.00
2023-02-16T16:03:02.201Z,100.00
2023-02-16T16:05:07.304Z,100.00
2023-02-16T16:07:14.244Z,100.00
2023-02-16T16:09:33.054Z,100.00
2023-02-16T16:11:36.393Z,100.00
2023-02-16T16:13:38.485Z,100.00
2023-02-16T16:15:46.760Z,100.00
2023-02-16T16:17:49.507Z,100.00
2023-02-16T16:19:51.368Z,100.00
2023-02-16T16:21:55.194Z,100.00
2023-02-16T16:24:06.504Z,100.00
2023-02-16T16:26:19.201Z,100.00
2023-02-16T16:28:41.133Z,100.00
2023-02-16T16:30:45.220Z,100.00
2023-02-16T16:32:47.201Z,100.00
2023-02-16T16:34:49.960Z,100.00
2023-02-16T16:36:56.996Z,100.00
2023-02-16T16:39:16.433Z,100.00
2023-02-16T16:41:28.534Z,100.00
2023-02-16T16:43:32.574Z,100.00
2023-02-16T16:45:38.303Z,100.00
2023-02-16T16:47:41.266Z,100.00
2023-02-16T16:49:55.458Z,100.00
2023-02-16T16:51:57.066Z,100.00
2023-02-16T16:54:00.908Z,100.00
2023-02-16T16:56:02.486Z,100.00
2023-02-16T16:58:07.867Z,100.00
2023-02-16T17:00:10.937Z,100.00
2023-02-16T17:02:12.522Z,100.00
2023-02-16T17:04:14.079Z,100.00
2023-02-16T17:06:17.588Z,100.00
2023-02-16T17:08:19.241Z,100.00
2023-02-16T17:10:22.010Z,100.00
2023-02-16T17:12:24.782Z,100.00
2023-02-16T17:14:27.719Z,100.00
2023-02-16T17:16:36.558Z,100.00
2023-02-16T17:18:38.068Z,100.00
2023-02-16T17:20:39.525Z,100.00
2023-02-16T17:22:41.036Z,100.00
2023-02-16T17:24:42.690Z,100.00
2023-02-16T17:26:44.147Z,100.00
2023-02-16T17:28:45.674Z,100.00
2023-02-16T17:30:47.223Z,100.00
2023-02-16T17:32:48.818Z,100.00
2023-02-16T17:34:50.269Z,100.00
2023-02-16T17:36:52.841Z,100.00
2023-02-16T17:38:54.964Z,100.00
2023-02-16T17:40:57.739Z,100.00
2023-02-16T17:42:59.214Z,100.00
2023-02-16T17:45:00.660Z,100.00
2023-02-16T17:47:02.785Z,100.00
2023-02-16T17:49:04.258Z,100.00
2023-02-16T17:51:09.964Z,100.00
2023-02-16T17:53:14.013Z,100.00
2023-02-16T17:55:15.699Z,100.00
2023-02-16T17:57:17.921Z,100.00
2023-02-16T17:59:19.520Z,100.00
2023-02-16T18:01:21.184Z,100.00
2023-02-16T18:03:23.124Z,100.00
2023-02-16T18:05:24.623Z,100.00
2023-02-16T18:07:26.394Z,100.00
2023-02-16T18:09:27.858Z,100.00
2023-02-16T18:11:29.510Z,100.00
2023-02-16T18:13:31.583Z,100.00
2023-02-16T18:15:33.766Z,100.00
2023-02-16T18:17:35.267Z,100.00
2023-02-16T18:19:36.730Z,100.00
2023-02-16T18:21:38.190Z,100.00
2023-02-16T18:23:40.096Z,100.00
2023-02-16T18:25:43.958Z,100.00
2023-02-16T18:27:45.695Z,100.00
2023-02-16T18:29:47.273Z,100.00
2023-02-16T18:31:48.814Z,100.00
2023-02-16T18:33:50.657Z,100.00
2023-02-16T18:35:55.062Z,100.00
2023-02-16T18:37:56.524Z,100.00
2023-02-16T18:39:57.999Z,100.00
2023-02-16T18:41:59.477Z,100.00
2023-02-16T18:44:01.414Z,100.00
2023-02-16T18:46:08.012Z,100.00
2023-02-16T18:48:09.700Z,100.00
2023-02-16T18:50:12.440Z,100.00
2023-02-16T18:52:13.926Z,100.00
2023-02-16T18:54:15.475Z,100.00
2023-02-16T18:56:17.033Z,100.00
2023-02-16T18:58:18.688Z,100.00
2023-02-16T19:00:21.801Z,100.00
2023-02-16T19:02:23.252Z,100.00
2023-02-16T19:04:25.941Z,100.00
2023-02-16T19:06:27.965Z,100.00
2023-02-16T19:08:29.404Z,100.00
2023-02-16T19:10:31.337Z,100.00
2023-02-16T19:12:32.791Z,100.00
2023-02-16T19:14:34.384Z,100.00
2023-02-16T19:16:35.864Z,100.00
2023-02-16T19:18:37.319Z,100.00
2023-02-16T19:20:38.774Z,100.00
2023-02-16T19:22:40.380Z,100.00
2023-02-16T19:24:41.864Z,100.00
2023-02-16T19:26:43.352Z,100.00
2023-02-16T19:28:45.777Z,100.00
2023-02-16T19:30:49.254Z,100.00
2023-02-16T19:32:50.921Z,100.00
2023-02-16T19:34:52.436Z,100.00
2023-02-16T19:36:54.061Z,100.00
2023-02-16T19:38:55.704Z,100.00
2023-02-16T19:40:57.499Z,100.00
2023-02-16T19:42:58.956Z,100.00
2023-02-16T19:45:00.431Z,100.00
2023-02-16T19:47:03.186Z,100.00
2023-02-16T19:49:04.947Z,100.00
2023-02-16T19:51:07.830Z,100.00
2023-02-16T19:53:09.338Z,100.00
2023-02-16T19:55:11.620Z,100.00
2023-02-16T19:57:13.246Z,100.00
2023-02-16T19:59:15.378Z,100.00
2023-02-16T20:01:19.923Z,100.00
2023-02-16T20:03:21.398Z,100.00
2023-02-16T20:05:22.880Z,100.00
2023-02-16T20:07:24.338Z,100.00
2023-02-16T20:09:25.819Z,100.00
2023-02-16T20:11:28.670Z,100.00
2023-02-16T20:13:30.171Z,100.00
2023-02-16T20:15:31.782Z,100.00
2023-02-16T20:17:33.268Z,100.00
2023-02-16T20:19:34.716Z,100.00
2023-02-16T20:21:36.356Z,100.00
2023-02-16T20:23:38.798Z,100.00
2023-02-16T20:25:40.323Z,100.00
2023-02-16T20:27:42.075Z,100.00
2023-02-16T20:29:43.632Z,100.00
2023-02-16T20:31:52.491Z,100.00
2023-02-16T20:33:54.369Z,100.00
2023-02-16T20:35:55.865Z,100.00
2023-02-16T20:37:57.325Z,100.00
2023-02-16T20:39:59.008Z,100.00
2023-02-16T20:42:00.504Z,100.00
2023-02-16T20:44:02.898Z,100.00
2023-02-16T20:46:06.519Z,100.00
2023-02-16T20:48:09.513Z,100.00
2023-02-16T20:50:11.247Z,100.00
2023-02-16T20:52:12.757Z,100.00
2023-02-16T20:54:14.351Z,100.00
2023-02-16T20:56:24.161Z,100.00
2023-02-16T20:58:25.612Z,100.00
2023-02-16T21:00:27.461Z,100.00
2023-02-16T21:02:28.974Z,100.00
2023-02-16T21:04:30.646Z,100.00
2023-02-16T21:06:32.517Z,100.00
2023-02-16T21:08:34.081Z,100.00
2023-02-16T21:10:35.666Z,100.00
2023-02-16T21:12:37.151Z,100.00
2023-02-16T21:14:38.708Z,100.00
2023-02-16T21:16:41.084Z,100.00
2023-02-16T21:18:43.274Z,100.00
2023-02-16T21:20:45.057Z,100.00
2023-02-16T21:22:46.643Z,100.00
2023-02-16T21:24:48.136Z,100.00
2023-02-16T21:26:49.731Z,100.00
2023-02-16T21:28:52.148Z,100.00
2023-02-16T21:30:54.217Z,100.00
2023-02-16T21:32:56.039Z,100.00
2023-02-16T21:34:57.562Z,100.00
2023-02-16T21:36:59.058Z,100.00
2023-02-16T21:39:02.837Z,100.00
2023-02-16T21:41:25.976Z,100.00
2023-02-16T21:43:27.566Z,100.00
2023-02-16T21:45:29.227Z,100.00
2023-02-16T21:47:49.437Z,100.00
2023-02-16T21:49:50.907Z,100.00
2023-02-16T21:51:52.548Z,100.00
2023-02-16T21:53:54.491Z,100.00
2023-02-16T21:56:14.791Z,100.00
2023-02-16T21:58:16.598Z,100.00
2023-02-16T22:00:18.108Z,100.00
2023-02-16T22:02:19.574Z,100.00
2023-02-16T22:04:22.711Z,100.00
2023-02-16T22:06:34.524Z,100.00
2023-02-16T22:08:38.078Z,100.00
2023-02-16T22:10:39.630Z,100.00
2023-02-16T22:12:41.095Z,100.00
2023-02-16T22:14:42.572Z,100.00
2023-02-16T22:16:46.393Z,100.00
2023-02-16T22:18:48.973Z,100.00
2023-02-16T22:20:50.470Z,100.00
2023-02-16T22:22:53.486Z,100.00
2023-02-16T22:24:54.943Z,100.00
2023-02-16T22:26:56.394Z,100.00
2023-02-16T22:28:58.624Z,100.00
2023-02-16T22:31:07.218Z,100.00
2023-02-16T22:33:08.801Z,100.00
2023-02-16T22:35:10.286Z,100.00
2023-02-16T22:37:11.764Z,100.00
2023-02-16T22:39:14.234Z,100.00
2023-02-16T22:41:15.732Z,100.00
2023-02-16T22:43:17.204Z,100.00
2023-02-16T22:45:18.687Z,100.00
2023-02-16T22:47:20.164Z,100.00
2023-02-16T22:49:21.705Z,100.00
2023-02-16T22:51:23.234Z,100.00
2023-02-16T22:53:26.921Z,100.00
2023-02-16T22:55:28.512Z,100.00
2023-02-16T22:57:30.048Z,100.00
2023-02-16T22:59:31.517Z,100.00
2023-02-16T23:01:33.355Z,100.00
2023-02-16T23:03:34.795Z,100.00
2023-02-16T23:05:36.272Z,100.00
2023-02-16T23:07:37.838Z,100.00
2023-02-16T23:09:39.297Z,100.00
2023-02-16T23:11:40.892Z,100.00
2023-02-16T23:13:42.360Z,100.00
2023-02-16T23:15:43.832Z,100.00
2023-02-16T23:17:45.278Z,100.00
2023-02-16T23:19:50.287Z,100.00
2023-02-16T23:21:53.672Z,100.00
2023-02-16T23:23:55.951Z,100.00
2023-02-16T23:25:57.459Z,100.00
2023-02-16T23:27:59.900Z,100.00
2023-02-16T23:30:01.513Z,100.00
2023-02-16T23:32:05.512Z,100.00
2023-02-16T23:34:08.019Z,100.00
2023-02-16T23:36:10.019Z,100.00
2023-02-16T23:38:14.368Z,100.00
2023-02-16T23:40:15.848Z,100.00
2023-02-16T23:42:17.308Z,100.00
2023-02-16T23:44:18.778Z,100.00
2023-02-16T23:46:20.289Z,100.00
2023-02-16T23:48:23.095Z,100.00
2023-02-16T23:50:26.088Z,100.00
2023-02-16T23:52:27.558Z,100.00
2023-02-16T23:54:29.123Z,100.00
2023-02-16T23:56:30.672Z,100.00
2023-02-16T23:58:42.630Z,100.00
